Dubuque (DBQ/KDBQ)

Map

Destinations

Information

Location
Dubuque, Iowa
Local Time
17:26 / 5:26 pm
GMT Time
22:26 / 10:26 pm
Gates
Unassigned
No FAA reported delays
METAR KDBQ 272153Z 03007KT 10SM OVC012 09/07 A2991 RMK AO2 SLP135 T00940067
TAF KDBQ 271732Z 2718/2818 05006KT P6SM OVC010 FM280100 02005KT 4SM BR OVC006 FM281100 04004KT 2SM BR OVC004 FM281500 05007KT 6SM BR OVC007
  • No charts available